Time;durP1;ratioP1;P1;durP2;ratioP2;P2;SDS_P1;SDS_P2;PMS_P1;PMS_P2;Temp;Humidity;BMP_temperature;BMP_pressure;BME280_temperature;BME280_humidity;BME280_pressure;Samples;Min_cycle;Max_cycle;Signal;HPM_P1;HPM_P2
2022/03/02 00:00:13;;;;;;;;;;;-2.20;99.90;;;;;;5064379;28;19929;-70
2022/03/02 00:02:41;;;;;;;;;;;-2.20;99.90;;;;;;5044326;28;20179;-70
2022/03/02 00:05:08;;;;;;;;;;;-2.10;99.90;;;;;;5044622;28;19936;-70
2022/03/02 00:07:35;;;;;;;;;;;-2.10;99.90;;;;;;5044503;28;19921;-70
2022/03/02 00:10:02;;;;;;;;;;;-2.10;99.90;;;;;;5064709;28;19925;-70
2022/03/02 00:12:30;;;;;;;;;;;-2.00;99.90;;;;;;5065538;28;19924;-70
2022/03/02 00:14:58;;;;;;;;;;;-2.00;99.90;;;;;;5065536;28;19932;-70
2022/03/02 00:17:24;;;;;;;;;;;-2.00;99.90;;;;;;5063363;28;20008;-72
2022/03/02 00:19:51;;;;;;;;;;;-2.00;99.90;;;;;;5064397;28;19920;-70
2022/03/02 00:22:18;;;;;;;;;;;-2.00;99.90;;;;;;5063914;28;19921;-70
2022/03/02 00:24:50;;;;;;;;;;;-2.00;99.90;;;;;;5064051;28;19920;-72
2022/03/02 00:27:17;;;;;;;;;;;-2.10;99.90;;;;;;5063743;28;19946;-70
2022/03/02 00:29:44;;;;;;;;;;;-2.10;99.90;;;;;;5063755;28;19920;-70
2022/03/02 00:32:12;;;;;;;;;;;-2.10;99.90;;;;;;5064071;28;19927;-70
2022/03/02 00:34:38;;;;;;;;;;;-2.10;99.90;;;;;;5063974;28;19927;-70
2022/03/02 00:37:06;;;;;;;;;;;-2.10;99.90;;;;;;5063368;28;19927;-71
2022/03/02 00:39:32;;;;;;;;;;;-2.10;99.90;;;;;;5063851;28;20243;-70
2022/03/02 00:41:59;;;;;;;;;;;-2.10;99.90;;;;;;5063257;28;19927;-73
2022/03/02 00:44:26;;;;;;;;;;;-2.10;99.90;;;;;;5063475;28;19947;-70
2022/03/02 00:46:52;;;;;;;;;;;-2.10;99.90;;;;;;5063403;28;19927;-70
2022/03/02 00:49:22;;;;;;;;;;;-2.20;99.90;;;;;;5063503;28;19920;-70
2022/03/02 00:51:49;;;;;;;;;;;-2.20;99.90;;;;;;5063429;28;19929;-70
2022/03/02 00:54:15;;;;;;;;;;;-2.10;99.90;;;;;;5063555;28;20212;-70
2022/03/02 00:56:42;;;;;;;;;;;-2.10;99.90;;;;;;5062950;28;19983;-71
2022/03/02 00:59:08;;;;;;;;;;;-2.10;99.90;;;;;;5063736;28;19924;-70
2022/03/02 01:01:35;;;;;;;;;;;-2.10;99.90;;;;;;5063001;28;19925;-70
2022/03/02 01:04:01;;;;;;;;;;;-2.20;99.90;;;;;;5063280;28;20231;-70
2022/03/02 01:06:29;;;;;;;;;;;-2.20;99.90;;;;;;5063248;28;20093;-71
2022/03/02 01:08:56;;;;;;;;;;;-2.30;99.90;;;;;;5062956;28;19927;-71
2022/03/02 01:11:23;;;;;;;;;;;-2.30;99.90;;;;;;5063361;28;20219;-70
2022/03/02 01:13:49;;;;;;;;;;;-2.30;99.90;;;;;;5063051;28;19921;-70
2022/03/02 01:16:16;;;;;;;;;;;-2.40;99.90;;;;;;5063048;28;20142;-72
2022/03/02 01:18:43;;;;;;;;;;;-2.40;99.90;;;;;;5062679;28;19929;-70
2022/03/02 01:21:10;;;;;;;;;;;-2.40;99.90;;;;;;5062667;28;19920;-71
2022/03/02 01:23:38;;;;;;;;;;;-2.40;99.90;;;;;;5063231;28;20087;-70
2022/03/02 01:26:05;;;;;;;;;;;-2.40;99.90;;;;;;5062713;28;19928;-70
2022/03/02 01:28:31;;;;;;;;;;;-2.40;99.90;;;;;;5063184;28;19921;-70
2022/03/02 01:30:58;;;;;;;;;;;-2.40;99.90;;;;;;5063095;28;19975;-70
2022/03/02 01:33:24;;;;;;;;;;;-2.50;99.90;;;;;;5062671;28;19928;-72
2022/03/02 01:35:51;;;;;;;;;;;-2.40;99.90;;;;;;5062514;28;20200;-71
2022/03/02 01:38:17;;;;;;;;;;;-2.40;99.90;;;;;;5063049;28;20217;-70
2022/03/02 01:40:45;;;;;;;;;;;-2.40;99.90;;;;;;5063045;28;20201;-70
2022/03/02 01:43:12;;;;;;;;;;;-2.40;99.90;;;;;;5063094;28;19927;-70
2022/03/02 01:45:39;;;;;;;;;;;-2.50;99.90;;;;;;5062881;28;19920;-71
2022/03/02 01:48:06;;;;;;;;;;;-2.50;99.90;;;;;;5063119;28;20101;-70
2022/03/02 01:50:33;;;;;;;;;;;-2.60;99.90;;;;;;5063156;28;19921;-70
2022/03/02 01:53:00;;;;;;;;;;;-2.60;99.90;;;;;;5063121;28;19927;-71
2022/03/02 01:55:26;;;;;;;;;;;-2.70;99.90;;;;;;5062928;28;19927;-70
2022/03/02 01:57:56;;;;;;;;;;;-2.80;99.90;;;;;;5066012;28;20205;-71
2022/03/02 02:00:23;;;;;;;;;;;-2.90;99.90;;;;;;5067085;28;19925;-70
2022/03/02 02:02:50;;;;;;;;;;;-2.90;99.90;;;;;;5058073;28;19921;-70
2022/03/02 02:05:18;;;;;;;;;;;-2.90;99.90;;;;;;5046639;28;19927;-70
2022/03/02 02:07:44;;;;;;;;;;;-2.90;99.90;;;;;;5055147;28;19921;-70
2022/03/02 02:10:12;;;;;;;;;;;-2.90;99.90;;;;;;5066628;28;20151;-70
2022/03/02 02:12:38;;;;;;;;;;;-2.90;99.90;;;;;;5066793;28;19927;-70
2022/03/02 02:15:07;;;;;;;;;;;-2.90;99.90;;;;;;5066518;28;19921;-70
2022/03/02 02:17:34;;;;;;;;;;;-2.80;99.90;;;;;;5066374;28;19921;-70
2022/03/02 02:20:00;;;;;;;;;;;-2.80;99.90;;;;;;5066114;28;19920;-70
2022/03/02 02:22:28;;;;;;;;;;;-2.80;99.90;;;;;;5066127;28;19921;-70
2022/03/02 02:24:55;;;;;;;;;;;-2.70;99.90;;;;;;5066176;28;19927;-70
2022/03/02 02:27:22;;;;;;;;;;;-2.80;99.90;;;;;;5066106;28;19920;-70
2022/03/02 02:29:49;;;;;;;;;;;-2.80;99.90;;;;;;5066317;28;19921;-71
2022/03/02 02:32:16;;;;;;;;;;;-2.80;99.90;;;;;;5065067;28;19921;-70
2022/03/02 02:34:42;;;;;;;;;;;-2.80;99.90;;;;;;5066137;28;19921;-71
2022/03/02 02:37:09;;;;;;;;;;;-2.90;99.90;;;;;;5065670;28;19935;-70
2022/03/02 02:39:37;;;;;;;;;;;-2.90;99.90;;;;;;5066196;28;19927;-70
2022/03/02 02:42:04;;;;;;;;;;;-2.80;99.90;;;;;;5065939;28;19920;-70
2022/03/02 02:44:32;;;;;;;;;;;-2.80;99.90;;;;;;5065853;28;19927;-71
2022/03/02 02:46:59;;;;;;;;;;;-2.80;99.90;;;;;;5065549;28;19920;-70
2022/03/02 02:49:26;;;;;;;;;;;-2.80;99.90;;;;;;5065826;28;19959;-70
2022/03/02 02:51:53;;;;;;;;;;;-2.70;99.90;;;;;;5065969;28;19921;-72
2022/03/02 02:54:20;;;;;;;;;;;-2.70;99.90;;;;;;5065747;28;19967;-70
2022/03/02 02:56:48;;;;;;;;;;;-2.80;99.90;;;;;;5065571;28;20130;-72
2022/03/02 02:59:15;;;;;;;;;;;-2.80;99.90;;;;;;5065451;28;20135;-73
2022/03/02 03:01:41;;;;;;;;;;;-2.80;99.90;;;;;;5065761;28;19927;-70
2022/03/02 03:04:09;;;;;;;;;;;-2.90;99.90;;;;;;5052667;28;19921;-70
2022/03/02 03:06:35;;;;;;;;;;;-2.80;99.90;;;;;;5051613;28;19920;-70
2022/03/02 03:09:02;;;;;;;;;;;-2.80;99.90;;;;;;5064249;28;19927;-70
2022/03/02 03:11:29;;;;;;;;;;;-2.80;99.90;;;;;;5065568;28;20292;-70
2022/03/02 03:13:57;;;;;;;;;;;-2.80;99.90;;;;;;5065199;28;19943;-70
2022/03/02 03:16:24;;;;;;;;;;;-2.80;99.90;;;;;;5064632;28;19925;-70
2022/03/02 03:18:50;;;;;;;;;;;-2.80;99.90;;;;;;5065388;28;20204;-70
2022/03/02 03:21:17;;;;;;;;;;;-2.80;99.90;;;;;;5065349;28;19920;-70
2022/03/02 03:23:44;;;;;;;;;;;-2.80;99.90;;;;;;5065352;28;19927;-71
2022/03/02 03:26:10;;;;;;;;;;;-2.80;99.90;;;;;;5064922;28;19927;-70
2022/03/02 03:28:37;;;;;;;;;;;-2.80;99.90;;;;;;5065175;28;19929;-70
2022/03/02 03:31:05;;;;;;;;;;;-2.70;99.90;;;;;;5064563;28;19983;-70
2022/03/02 03:33:31;;;;;;;;;;;-2.70;99.90;;;;;;5065200;28;19925;-70
2022/03/02 03:35:58;;;;;;;;;;;-2.70;99.90;;;;;;5064273;28;20113;-71
2022/03/02 03:38:24;;;;;;;;;;;-2.60;99.90;;;;;;5064982;28;19943;-71
2022/03/02 03:40:51;;;;;;;;;;;-2.60;99.90;;;;;;5064890;28;19928;-70
2022/03/02 03:43:18;;;;;;;;;;;-2.60;99.90;;;;;;5064174;28;19988;-76
2022/03/02 03:45:44;;;;;;;;;;;-2.60;99.90;;;;;;5060390;28;19995;-70
2022/03/02 03:48:12;;;;;;;;;;;-2.70;99.90;;;;;;5064975;28;19921;-70
2022/03/02 03:50:40;;;;;;;;;;;-2.70;99.90;;;;;;5063111;28;19928;-70
2022/03/02 03:53:06;;;;;;;;;;;-2.70;99.90;;;;;;5064553;28;20216;-70
2022/03/02 03:55:33;;;;;;;;;;;-2.70;99.90;;;;;;5064386;28;19947;-70
2022/03/02 03:58:00;;;;;;;;;;;-2.70;99.90;;;;;;5064834;28;19984;-70
2022/03/02 04:00:26;;;;;;;;;;;-2.70;99.90;;;;;;5064888;28;19920;-70
2022/03/02 04:02:53;;;;;;;;;;;-2.70;99.90;;;;;;5064527;28;19956;-71
2022/03/02 04:05:21;;;;;;;;;;;-2.70;99.90;;;;;;5064169;28;19925;-70
2022/03/02 04:07:48;;;;;;;;;;;-2.70;99.90;;;;;;5064469;28;19921;-70
2022/03/02 04:10:14;;;;;;;;;;;-2.80;99.90;;;;;;5064209;28;19924;-70
2022/03/02 04:12:41;;;;;;;;;;;-2.80;99.90;;;;;;5064173;28;20216;-70
2022/03/02 04:15:08;;;;;;;;;;;-2.80;99.90;;;;;;5064169;28;19933;-70
2022/03/02 04:17:35;;;;;;;;;;;-2.80;99.90;;;;;;5063881;28;19944;-70
2022/03/02 04:20:02;;;;;;;;;;;-2.70;99.90;;;;;;5063933;28;20001;-70
2022/03/02 04:22:30;;;;;;;;;;;-2.70;99.90;;;;;;5064148;28;19921;-72
2022/03/02 04:24:57;;;;;;;;;;;-2.70;99.90;;;;;;5063996;28;20056;-70
2022/03/02 04:27:24;;;;;;;;;;;-2.70;99.90;;;;;;5063911;28;20220;-71
2022/03/02 04:29:50;;;;;;;;;;;-2.70;99.90;;;;;;5063754;28;19920;-70
2022/03/02 04:32:17;;;;;;;;;;;-2.70;99.90;;;;;;5062829;28;19921;-70
2022/03/02 04:34:43;;;;;;;;;;;-2.70;99.90;;;;;;5063871;28;19928;-72
2022/03/02 04:37:10;;;;;;;;;;;-2.70;99.90;;;;;;5063409;28;20120;-70
2022/03/02 04:39:38;;;;;;;;;;;-2.70;99.90;;;;;;5063439;28;20207;-70
2022/03/02 04:42:05;;;;;;;;;;;-2.70;99.90;;;;;;5064010;28;19925;-70
2022/03/02 04:44:31;;;;;;;;;;;-2.80;99.90;;;;;;5063440;28;19925;-70
2022/03/02 04:46:58;;;;;;;;;;;-2.80;99.90;;;;;;5044498;28;19927;-71
2022/03/02 04:49:24;;;;;;;;;;;-2.90;99.90;;;;;;5043660;28;19928;-71
2022/03/02 04:51:51;;;;;;;;;;;-2.80;99.90;;;;;;5053653;28;20119;-70
2022/03/02 04:57:00;;;;;;;;;;;-2.80;99.90;;;;;;5051022;28;19917;-70
2022/03/02 04:59:26;;;;;;;;;;;-2.80;99.90;;;;;;5057570;28;19928;-71
2022/03/02 05:01:53;;;;;;;;;;;-2.80;99.90;;;;;;5063992;28;19921;-70
2022/03/02 05:04:20;;;;;;;;;;;-2.80;99.90;;;;;;5063378;28;20149;-70
2022/03/02 05:06:46;;;;;;;;;;;-2.80;99.90;;;;;;5063702;28;20139;-71
2022/03/02 05:09:13;;;;;;;;;;;-2.80;99.90;;;;;;5058327;28;19920;-70
2022/03/02 05:11:39;;;;;;;;;;;-2.70;99.90;;;;;;5063391;28;19921;-70
2022/03/02 05:14:07;;;;;;;;;;;-2.70;99.90;;;;;;5062887;28;19921;-70
2022/03/02 05:16:34;;;;;;;;;;;-2.70;99.90;;;;;;5062750;28;20217;-71
2022/03/02 05:19:01;;;;;;;;;;;-2.70;99.90;;;;;;5054487;28;19928;-72
2022/03/02 05:21:27;;;;;;;;;;;-2.60;99.90;;;;;;5046788;28;20238;-70
2022/03/02 05:23:54;;;;;;;;;;;-2.60;99.90;;;;;;5062559;28;19954;-70
2022/03/02 05:26:20;;;;;;;;;;;-2.60;99.90;;;;;;5057968;28;19920;-72
2022/03/02 05:28:47;;;;;;;;;;;-2.60;99.90;;;;;;5062810;28;20212;-71
2022/03/02 05:31:15;;;;;;;;;;;-2.60;99.90;;;;;;5061656;28;19943;-69
2022/03/02 05:33:41;;;;;;;;;;;-2.60;99.90;;;;;;5063059;28;19958;-71
2022/03/02 05:38:36;;;;;;;;;;;-2.60;99.90;;;;;;5020740;28;20116;-69
2022/03/02 05:41:02;;;;;;;;;;;-2.60;99.90;;;;;;5022727;28;20113;-69
2022/03/02 05:43:29;;;;;;;;;;;-2.60;99.90;;;;;;5022312;28;20020;-70
2022/03/02 05:45:56;;;;;;;;;;;-2.60;99.90;;;;;;5022410;28;19922;-69
2022/03/02 05:48:23;;;;;;;;;;;-2.60;99.90;;;;;;5003591;28;19928;-69
2022/03/02 05:50:50;;;;;;;;;;;-2.60;99.90;;;;;;5022517;28;19922;-69
2022/03/02 05:53:16;;;;;;;;;;;-2.50;99.90;;;;;;5023335;28;19927;-69
2022/03/02 05:55:43;;;;;;;;;;;-2.50;99.90;;;;;;5023047;28;20165;-69
2022/03/02 05:58:10;;;;;;;;;;;-2.50;99.90;;;;;;5019280;28;19922;-69
2022/03/02 06:00:36;;;;;;;;;;;-2.50;99.90;;;;;;5023623;28;20162;-69
2022/03/02 06:03:03;;;;;;;;;;;-2.50;99.90;;;;;;5023650;28;19922;-68
2022/03/02 06:05:31;;;;;;;;;;;-2.50;99.90;;;;;;5023423;28;19933;-68
2022/03/02 06:07:57;;;;;;;;;;;-2.40;99.90;;;;;;5023237;28;20099;-68
2022/03/02 06:10:24;;;;;;;;;;;-2.40;99.90;;;;;;5023143;28;19926;-69
2022/03/02 06:12:51;;;;;;;;;;;-2.40;99.90;;;;;;5018243;28;19944;-69
2022/03/02 06:15:18;;;;;;;;;;;-2.40;99.90;;;;;;5023201;28;20086;-69
2022/03/02 06:17:45;;;;;;;;;;;-2.40;99.90;;;;;;5022652;28;19936;-69
2022/03/02 06:20:12;;;;;;;;;;;-2.40;99.90;;;;;;5022005;28;19922;-69
2022/03/02 06:22:42;;;;;;;;;;;-2.30;99.90;;;;;;5018684;28;19929;-68
2022/03/02 06:25:09;;;;;;;;;;;-2.30;99.90;;;;;;5003518;28;19928;-69
2022/03/02 06:27:36;;;;;;;;;;;-2.30;99.90;;;;;;5003206;28;20118;-69
2022/03/02 06:30:04;;;;;;;;;;;-2.30;99.90;;;;;;5015131;28;19928;-69
2022/03/02 06:32:31;;;;;;;;;;;-2.30;99.90;;;;;;5021483;28;20259;-69
2022/03/02 06:34:58;;;;;;;;;;;-2.20;99.90;;;;;;5006071;28;20109;-68
2022/03/02 06:37:25;;;;;;;;;;;-2.20;99.90;;;;;;5002828;28;19921;-69
2022/03/02 06:39:53;;;;;;;;;;;-2.30;99.90;;;;;;5012612;28;19988;-69
2022/03/02 06:42:23;;;;;;;;;;;-2.30;99.90;;;;;;5022376;28;20215;-69
2022/03/02 06:44:54;;;;;;;;;;;-2.30;99.90;;;;;;5023957;28;19988;-70
2022/03/02 06:47:24;;;;;;;;;;;-2.30;99.90;;;;;;5026069;28;19921;-69
2022/03/02 06:50:03;;;;;;;;;;;-2.30;99.90;;;;;;5024889;28;19921;-69
2022/03/02 06:52:33;;;;;;;;;;;-2.30;99.90;;;;;;5017508;28;19928;-68
2022/03/02 06:55:02;;;;;;;;;;;-2.20;99.90;;;;;;5009595;28;21624;-68
2022/03/02 06:57:29;;;;;;;;;;;-2.20;99.90;;;;;;5025534;28;19921;-69
2022/03/02 06:59:59;;;;;;;;;;;-2.10;99.90;;;;;;5021424;28;19921;-68
2022/03/02 07:02:28;;;;;;;;;;;-2.10;99.90;;;;;;5026500;28;19927;-68
2022/03/02 07:04:56;;;;;;;;;;;-2.10;99.90;;;;;;5026484;28;19926;-68
2022/03/02 07:07:22;;;;;;;;;;;-2.00;99.90;;;;;;5025608;28;19922;-69
2022/03/02 07:09:49;;;;;;;;;;;-1.90;99.90;;;;;;5025901;28;20498;-68
2022/03/02 07:12:18;;;;;;;;;;;-1.80;99.90;;;;;;5015777;28;19922;-70
2022/03/02 07:14:46;;;;;;;;;;;-1.70;99.90;;;;;;5026193;28;19928;-69
2022/03/02 07:17:12;;;;;;;;;;;-1.60;99.90;;;;;;5025158;28;19925;-69
2022/03/02 07:19:39;;;;;;;;;;;-1.60;99.90;;;;;;5025245;28;19928;-69
2022/03/02 07:22:07;;;;;;;;;;;-1.50;99.90;;;;;;5015389;28;19928;-69
2022/03/02 07:24:37;;;;;;;;;;;-1.40;99.90;;;;;;5005913;28;19928;-69
2022/03/02 07:27:05;;;;;;;;;;;-1.40;99.90;;;;;;5021675;28;20112;-69
2022/03/02 07:29:34;;;;;;;;;;;-1.40;99.90;;;;;;5022702;28;19921;-69
2022/03/02 07:32:04;;;;;;;;;;;-1.40;99.90;;;;;;5010809;28;19925;-69
2022/03/02 07:34:31;;;;;;;;;;;-1.30;99.90;;;;;;5014132;28;19967;-69
2022/03/02 07:36:59;;;;;;;;;;;-1.20;99.90;;;;;;5024622;28;20097;-70
2022/03/02 07:39:26;;;;;;;;;;;-1.20;99.90;;;;;;5024187;28;20263;-69
2022/03/02 07:41:52;;;;;;;;;;;-1.20;99.90;;;;;;5022059;28;19922;-69
2022/03/02 07:44:19;;;;;;;;;;;-1.10;99.90;;;;;;5023861;28;20155;-69
2022/03/02 07:46:47;;;;;;;;;;;-1.00;99.90;;;;;;5024627;28;20116;-69
2022/03/02 07:49:14;;;;;;;;;;;-1.00;99.90;;;;;;5023690;28;19921;-69
2022/03/02 07:51:41;;;;;;;;;;;-0.90;99.90;;;;;;5023218;28;19935;-70
2022/03/02 07:54:08;;;;;;;;;;;-0.80;99.90;;;;;;5024878;28;19921;-69
2022/03/02 07:56:35;;;;;;;;;;;-0.70;99.90;;;;;;5024843;28;19922;-69
2022/03/02 07:59:04;;;;;;;;;;;-0.70;99.90;;;;;;5024795;28;19922;-69
2022/03/02 08:01:34;;;;;;;;;;;-0.60;99.90;;;;;;5024434;28;19993;-69
2022/03/02 08:04:04;;;;;;;;;;;-0.60;99.90;;;;;;5025060;28;19980;-68
2022/03/02 08:06:31;;;;;;;;;;;-0.60;99.90;;;;;;5024610;28;19922;-69
2022/03/02 08:08:58;;;;;;;;;;;-0.50;99.90;;;;;;5016927;28;19922;-69
2022/03/02 08:11:25;;;;;;;;;;;-0.50;99.90;;;;;;5005695;28;19921;-68
2022/03/02 08:13:52;;;;;;;;;;;-0.40;99.90;;;;;;5021040;28;19928;-69
2022/03/02 08:16:18;;;;;;;;;;;-0.30;99.90;;;;;;5024702;28;19943;-69
2022/03/02 08:18:45;;;;;;;;;;;-0.30;99.90;;;;;;5019761;28;19922;-69
2022/03/02 08:21:17;;;;;;;;;;;-0.30;99.90;;;;;;5024757;28;19921;-69
2022/03/02 08:23:45;;;;;;;;;;;-0.20;99.90;;;;;;5024060;28;19979;-69
2022/03/02 08:26:12;;;;;;;;;;;-0.10;99.90;;;;;;5003661;28;19922;-69
2022/03/02 08:28:42;;;;;;;;;;;-0.10;99.90;;;;;;5004695;28;19928;-69
2022/03/02 08:31:10;;;;;;;;;;;0.00;99.90;;;;;;5020793;28;19921;-69
2022/03/02 08:33:37;;;;;;;;;;;0.10;99.90;;;;;;5031556;28;19928;-69
2022/03/02 08:36:04;;;;;;;;;;;0.20;99.90;;;;;;5024471;28;19922;-69
2022/03/02 08:38:35;;;;;;;;;;;0.30;99.90;;;;;;5023854;28;19926;-69
2022/03/02 08:41:02;;;;;;;;;;;0.40;99.90;;;;;;5019684;28;19928;-69
2022/03/02 08:43:29;;;;;;;;;;;0.40;99.90;;;;;;5025494;28;19943;-69
2022/03/02 08:45:55;;;;;;;;;;;0.50;99.90;;;;;;5023005;28;19922;-69
2022/03/02 08:48:22;;;;;;;;;;;0.60;99.90;;;;;;5006490;28;19932;-68
2022/03/02 08:50:49;;;;;;;;;;;0.60;99.90;;;;;;5004806;28;19922;-69
2022/03/02 08:53:18;;;;;;;;;;;0.70;99.90;;;;;;5004397;28;19985;-69
2022/03/02 08:55:48;;;;;;;;;;;0.90;99.90;;;;;;5019618;28;20231;-69
2022/03/02 08:58:15;;;;;;;;;;;1.00;99.90;;;;;;5021691;28;19933;-69
2022/03/02 09:00:42;;;;;;;;;;;1.10;99.90;;;;;;5022078;28;19921;-69
2022/03/02 09:03:10;;;;;;;;;;;1.20;99.90;;;;;;5024233;28;19921;-68
2022/03/02 09:05:36;;;;;;;;;;;1.20;99.90;;;;;;5023049;28;19963;-69
2022/03/02 09:08:10;;;;;;;;;;;1.20;99.90;;;;;;5023692;28;19928;-69
2022/03/02 09:10:37;;;;;;;;;;;1.30;99.90;;;;;;5023613;28;19925;-69
2022/03/02 09:13:05;;;;;;;;;;;1.40;99.90;;;;;;5022210;28;19921;-68
2022/03/02 09:15:34;;;;;;;;;;;1.40;99.90;;;;;;5023391;28;20032;-69
2022/03/02 09:18:00;;;;;;;;;;;1.50;99.90;;;;;;5024037;28;19925;-69
2022/03/02 09:20:30;;;;;;;;;;;1.60;99.90;;;;;;5023410;28;19940;-69
2022/03/02 09:23:00;;;;;;;;;;;1.70;99.90;;;;;;5023518;28;19922;-68
2022/03/02 09:25:27;;;;;;;;;;;1.70;99.90;;;;;;5023526;28;20156;-69
2022/03/02 09:27:56;;;;;;;;;;;1.70;99.90;;;;;;5023500;28;19921;-69
2022/03/02 09:30:24;;;;;;;;;;;1.80;99.90;;;;;;5023631;28;20208;-69
2022/03/02 09:33:00;;;;;;;;;;;1.90;99.90;;;;;;5023068;28;19921;-69
2022/03/02 09:35:27;;;;;;;;;;;2.00;99.90;;;;;;5023237;28;20205;-69
2022/03/02 09:37:56;;;;;;;;;;;2.00;99.90;;;;;;5023456;28;20160;-69
2022/03/02 09:40:23;;;;;;;;;;;2.00;99.90;;;;;;5023799;28;19992;-69
2022/03/02 09:42:54;;;;;;;;;;;2.00;99.90;;;;;;5023489;28;19927;-69
2022/03/02 09:45:22;;;;;;;;;;;2.10;99.90;;;;;;5022942;28;19921;-68
2022/03/02 09:47:53;;;;;;;;;;;2.10;99.90;;;;;;5013578;28;19928;-69
2022/03/02 09:50:20;;;;;;;;;;;2.30;99.90;;;;;;5015467;28;20125;-69
2022/03/02 09:52:48;;;;;;;;;;;2.40;99.90;;;;;;5023279;28;20205;-69
2022/03/02 09:55:21;;;;;;;;;;;2.50;99.90;;;;;;5022663;28;19921;-69
2022/03/02 09:57:49;;;;;;;;;;;2.60;99.90;;;;;;5003389;28;20004;-69
2022/03/02 10:00:18;;;;;;;;;;;2.70;99.90;;;;;;5014355;28;19980;-69
2022/03/02 10:02:46;;;;;;;;;;;2.80;99.90;;;;;;5023149;28;20180;-69
2022/03/02 10:05:15;;;;;;;;;;;2.90;99.90;;;;;;5010908;28;19925;-69
2022/03/02 10:07:45;;;;;;;;;;;2.80;99.90;;;;;;5011142;28;19926;-69
2022/03/02 10:10:13;;;;;;;;;;;2.80;99.90;;;;;;5022840;28;19979;-69
2022/03/02 10:12:40;;;;;;;;;;;2.80;99.90;;;;;;5023329;28;19926;-69
2022/03/02 10:15:08;;;;;;;;;;;2.90;99.90;;;;;;5023081;28;19921;-69
2022/03/02 10:17:35;;;;;;;;;;;2.90;99.90;;;;;;5023624;28;19921;-70
2022/03/02 10:20:04;;;;;;;;;;;3.00;99.90;;;;;;5025991;28;20220;-69
2022/03/02 10:22:44;;;;;;;;;;;3.00;99.90;;;;;;5022241;28;19921;-68
2022/03/02 10:25:12;;;;;;;;;;;3.10;99.90;;;;;;5026757;28;19922;-70
2022/03/02 10:27:44;;;;;;;;;;;3.10;99.90;;;;;;5041400;28;20129;-69
2022/03/02 10:30:12;;;;;;;;;;;3.20;99.90;;;;;;5025335;28;19937;-69
2022/03/02 10:32:41;;;;;;;;;;;3.30;99.90;;;;;;5030265;28;19982;-70
2022/03/02 10:35:09;;;;;;;;;;;3.40;99.90;;;;;;5026768;28;19922;-70
2022/03/02 10:37:37;;;;;;;;;;;3.40;99.90;;;;;;5025572;28;20213;-70
2022/03/02 10:40:09;;;;;;;;;;;3.40;99.90;;;;;;5029578;28;19921;-70
2022/03/02 10:42:37;;;;;;;;;;;3.50;99.90;;;;;;5025613;28;20372;-70
2022/03/02 10:45:06;;;;;;;;;;;3.60;99.90;;;;;;5026409;28;19928;-70
2022/03/02 10:47:33;;;;;;;;;;;3.60;99.90;;;;;;5026117;28;19943;-70
2022/03/02 10:50:01;;;;;;;;;;;3.60;99.90;;;;;;5024412;28;19922;-70
2022/03/02 10:52:28;;;;;;;;;;;3.70;99.90;;;;;;5017678;28;19921;-70
2022/03/02 10:54:55;;;;;;;;;;;3.80;99.90;;;;;;5026340;28;20120;-70
2022/03/02 10:57:24;;;;;;;;;;;3.90;99.90;;;;;;5025395;28;20231;-70
2022/03/02 10:59:52;;;;;;;;;;;3.90;99.90;;;;;;5036190;28;19921;-70
2022/03/02 11:02:21;;;;;;;;;;;3.90;99.90;;;;;;5027866;28;19922;-69
2022/03/02 11:04:48;;;;;;;;;;;4.00;99.90;;;;;;5045906;28;19921;-69
2022/03/02 11:07:16;;;;;;;;;;;4.00;99.90;;;;;;5045511;28;19921;-69
2022/03/02 11:09:48;;;;;;;;;;;4.00;99.90;;;;;;5035180;28;19936;-69
2022/03/02 11:12:15;;;;;;;;;;;4.10;99.90;;;;;;5040762;28;19944;-69
2022/03/02 11:14:55;;;;;;;;;;;4.10;99.90;;;;;;5031780;28;19922;-69
2022/03/02 11:17:22;;;;;;;;;;;4.30;99.90;;;;;;5006846;28;19926;-69
2022/03/02 11:19:48;;;;;;;;;;;4.30;99.90;;;;;;5010310;28;20205;-69
2022/03/02 11:22:16;;;;;;;;;;;4.30;99.90;;;;;;5017756;28;19929;-69
2022/03/02 11:24:43;;;;;;;;;;;4.30;99.90;;;;;;5013623;28;19930;-69
2022/03/02 11:27:25;;;;;;;;;;;4.30;99.90;;;;;;5022190;28;19945;-69
2022/03/02 11:30:00;;;;;;;;;;;4.30;99.90;;;;;;5012753;28;19929;-69
2022/03/02 11:32:27;;;;;;;;;;;4.30;99.90;;;;;;5024434;28;19936;-70
2022/03/02 11:34:57;;;;;;;;;;;4.40;99.90;;;;;;5025210;28;20082;-69
2022/03/02 11:37:24;;;;;;;;;;;4.40;99.90;;;;;;5055017;22;19921;-69
2022/03/02 11:39:51;;;;;;;;;;;4.40;99.90;;;;;;5044722;28;20208;-67
2022/03/02 11:42:19;;;;;;;;;;;4.50;99.90;;;;;;5057898;28;19925;-68
2022/03/02 11:44:50;;;;;;;;;;;4.50;99.90;;;;;;5058228;28;20039;-68
2022/03/02 11:47:20;;;;;;;;;;;4.60;99.90;;;;;;5053549;28;19952;-69
2022/03/02 11:49:48;;;;;;;;;;;4.60;99.90;;;;;;5053584;28;20041;-69
2022/03/02 11:52:15;;;;;;;;;;;4.60;99.90;;;;;;5051917;28;19921;-70
2022/03/02 11:54:42;;;;;;;;;;;4.70;99.90;;;;;;5054222;28;19996;-70
2022/03/02 11:57:09;;;;;;;;;;;4.80;99.90;;;;;;5050716;28;19921;-71
2022/03/02 11:59:38;;;;;;;;;;;4.80;99.90;;;;;;5051797;28;19921;-68
2022/03/02 12:02:12;;;;;;;;;;;4.80;99.90;;;;;;5053740;28;19920;-68
2022/03/02 12:04:40;;;;;;;;;;;4.90;99.90;;;;;;5055559;28;19921;-68
2022/03/02 12:07:08;;;;;;;;;;;4.90;99.90;;;;;;5049947;28;19921;-71
2022/03/02 12:09:35;;;;;;;;;;;4.90;99.90;;;;;;5046711;28;19925;-71
2022/03/02 12:12:09;;;;;;;;;;;4.90;99.90;;;;;;5043296;28;19921;-70
2022/03/02 12:14:43;;;;;;;;;;;4.90;99.90;;;;;;5044458;28;19924;-70
2022/03/02 12:17:14;;;;;;;;;;;5.00;99.90;;;;;;5039288;28;19967;-70
2022/03/02 12:19:44;;;;;;;;;;;5.00;99.90;;;;;;5043567;28;20235;-70
2022/03/02 12:22:13;;;;;;;;;;;5.00;99.90;;;;;;5043082;28;19928;-73
2022/03/02 12:24:39;;;;;;;;;;;5.00;99.90;;;;;;5043659;28;19956;-71
2022/03/02 12:27:07;;;;;;;;;;;5.00;99.90;;;;;;5029421;28;19928;-70
2022/03/02 12:29:41;;;;;;;;;;;5.10;99.90;;;;;;5033502;28;19984;-70
2022/03/02 12:32:08;;;;;;;;;;;5.00;99.90;;;;;;5024300;28;19929;-70
2022/03/02 12:34:37;;;;;;;;;;;5.00;99.90;;;;;;5023907;28;19921;-71
2022/03/02 12:37:05;;;;;;;;;;;5.00;99.90;;;;;;5022401;28;19929;-70
2022/03/02 12:39:32;;;;;;;;;;;5.00;99.90;;;;;;5022958;28;19921;-71
2022/03/02 12:42:02;;;;;;;;;;;5.00;99.90;;;;;;5024156;28;19921;-70
2022/03/02 12:44:33;;;;;;;;;;;5.00;99.90;;;;;;5024448;28;19922;-70
2022/03/02 12:47:00;;;;;;;;;;;4.90;99.90;;;;;;5024171;28;19921;-68
2022/03/02 12:49:28;;;;;;;;;;;4.90;99.90;;;;;;5029357;28;19921;-70
2022/03/02 12:51:55;;;;;;;;;;;4.90;99.90;;;;;;5043980;28;19921;-70
2022/03/02 12:54:23;;;;;;;;;;;5.00;99.90;;;;;;5044004;28;19947;-71
2022/03/02 12:56:50;;;;;;;;;;;5.00;99.90;;;;;;5043715;28;19921;-70
2022/03/02 12:59:17;;;;;;;;;;;5.00;99.90;;;;;;5033480;28;19921;-71
2022/03/02 13:01:44;;;;;;;;;;;5.10;99.90;;;;;;5043535;28;19921;-70
2022/03/02 13:04:13;;;;;;;;;;;5.20;99.90;;;;;;5043733;28;19927;-71
2022/03/02 13:06:43;;;;;;;;;;;5.20;99.90;;;;;;5042690;28;19921;-70
2022/03/02 13:09:13;;;;;;;;;;;5.20;99.90;;;;;;5040358;28;19933;-70
2022/03/02 13:11:41;;;;;;;;;;;5.10;99.90;;;;;;5043361;28;19928;-71
2022/03/02 13:14:30;;;;;;;;;;;5.20;99.90;;;;;;5027874;28;19921;-69
2022/03/02 13:17:13;;;;;;;;;;;5.20;99.90;;;;;;5041888;28;20436;-69
2022/03/02 13:19:44;;;;;;;;;;;5.20;99.90;;;;;;5043168;28;19927;-71
2022/03/02 13:22:16;;;;;;;;;;;5.30;99.90;;;;;;5036592;28;19921;-71
2022/03/02 13:24:46;;;;;;;;;;;5.30;99.90;;;;;;5042677;28;19921;-71
2022/03/02 13:27:16;;;;;;;;;;;5.30;99.90;;;;;;5041806;28;19932;-70
2022/03/02 13:29:49;;;;;;;;;;;5.40;99.90;;;;;;5040753;28;19980;-71
2022/03/02 13:32:16;;;;;;;;;;;5.40;99.90;;;;;;5043193;28;19921;-70
2022/03/02 13:35:04;;;;;;;;;;;5.40;99.90;;;;;;5043898;28;19921;-70
2022/03/02 13:37:45;;;;;;;;;;;5.50;99.90;;;;;;5042802;28;19928;-72
2022/03/02 13:40:35;;;;;;;;;;;5.60;99.90;;;;;;5039365;28;20315;-71
2022/03/02 13:43:23;;;;;;;;;;;5.60;99.90;;;;;;5040220;28;19929;-71
2022/03/02 13:46:14;;;;;;;;;;;5.80;99.90;;;;;;5039023;28;19929;-71
2022/03/02 13:48:46;;;;;;;;;;;6.00;99.90;;;;;;5043859;28;19921;-71
2022/03/02 13:51:15;;;;;;;;;;;6.30;99.90;;;;;;5039685;28;19921;-70
2022/03/02 13:53:44;;;;;;;;;;;6.40;99.90;;;;;;5050671;28;19921;-70
2022/03/02 13:56:11;;;;;;;;;;;6.60;99.90;;;;;;5036386;28;19925;-71
2022/03/02 13:58:39;;;;;;;;;;;6.80;99.90;;;;;;5066345;28;19959;-70
2022/03/02 14:01:15;;;;;;;;;;;7.00;99.90;;;;;;5067075;28;19966;-71
2022/03/02 14:03:44;;;;;;;;;;;6.90;99.90;;;;;;5061254;28;20107;-70
2022/03/02 14:06:11;;;;;;;;;;;6.80;99.90;;;;;;5059341;28;20263;-71
2022/03/02 14:08:45;;;;;;;;;;;6.80;99.90;;;;;;5054459;28;19920;-71
2022/03/02 14:11:26;;;;;;;;;;;6.70;99.90;;;;;;5066508;28;20234;-70
2022/03/02 14:13:53;;;;;;;;;;;6.60;99.90;;;;;;5056121;28;20451;-71
2022/03/02 14:16:21;;;;;;;;;;;6.70;99.90;;;;;;5045332;28;20220;-71
2022/03/02 14:18:47;;;;;;;;;;;6.80;99.90;;;;;;5049262;28;19928;-70
2022/03/02 14:21:15;;;;;;;;;;;7.00;99.90;;;;;;5050479;28;19967;-70
2022/03/02 14:23:45;;;;;;;;;;;7.00;99.90;;;;;;5046813;28;19989;-69
2022/03/02 14:26:11;;;;;;;;;;;6.90;99.90;;;;;;5053793;28;19920;-70
2022/03/02 14:28:40;;;;;;;;;;;6.90;99.90;;;;;;5061988;28;19927;-71
2022/03/02 14:31:07;;;;;;;;;;;6.80;99.90;;;;;;5034541;28;19929;-70
2022/03/02 14:33:36;;;;;;;;;;;6.80;99.90;;;;;;5044909;28;19921;-67